Main page
METAR-TAF:

METAR-TAF

Airports :

Paris-Charles De Gaulle, France

Charles de Gaulle Airport

latitude: 49-01N, longitude: 002-32E, elevation: 118 m

Current weather observation

The report was made 24 minutes ago, at 05:00 UTC
Wind 12 kt from the East/Northeast
Temperature 6°C
Humidity 70%
Pressure 1018 hPa
Visibility 10 km or more
no clouds below 1500 m and no cumulonimbus

METAR: LFPG 260500Z 06012KT CAVOK 06/01 Q1018 NOSIG

Time: 07:24 (05:24 UTC)

Forecast

The report was made 6 hours and 24 minutes ago, at 23:00 UTC
Forecast valid from 26 at 00 UTC to 27 at 06 UTC
Wind 10 kt from the East/Northeast
Visibility 10 km or more
no clouds below 1500 m and no cumulonimbus

TAF: LFPG 252300Z 2600/2706 07010KT CAVOK TX19/2615Z TN05/2606Z

Weather observations and forecasts of more than 4000 airports (METAR and TAF reports).

The available stations are represented by yellow and red dots on the map.

Hover mouse over dot to see the name of the station.

Then click to see weather observations and forecasts.

To change the map : click on the green buttons with a black cross to zoom in, on the green button with a dash to zoom out, or on the green arrows for adjacent maps.


METAR-TAF: